sensor_id;sensor_type;location;lat;lon;timestamp;pressure;altitude;pressure_sealevel;temperature;humidity
71948;BME280;63257;55.082;38.772;2024-03-29T00:00:07;99322.91;;;5.95;55.99
71948;BME280;63257;55.082;38.772;2024-03-29T00:02:38;99323.91;;;5.92;56.49
71948;BME280;63257;55.082;38.772;2024-03-29T00:05:05;99307.25;;;6.14;56.71
71948;BME280;63257;55.082;38.772;2024-03-29T00:07:32;99313.25;;;6.16;56.59
71948;BME280;63257;55.082;38.772;2024-03-29T00:09:58;99314.41;;;6.10;56.02
71948;BME280;63257;55.082;38.772;2024-03-29T00:12:24;99305.75;;;6.08;57.09
71948;BME280;63257;55.082;38.772;2024-03-29T00:14:50;99284.44;;;5.76;56.69
71948;BME280;63257;55.082;38.772;2024-03-29T00:17:16;99293.91;;;5.79;56.72
71948;BME280;63257;55.082;38.772;2024-03-29T00:19:44;99301.25;;;5.71;57.14
71948;BME280;63257;55.082;38.772;2024-03-29T00:22:09;99298.38;;;5.77;57.50
71948;BME280;63257;55.082;38.772;2024-03-29T00:24:35;99267.94;;;5.74;57.79
71948;BME280;63257;55.082;38.772;2024-03-29T00:27:02;99258.59;;;5.69;56.83
71948;BME280;63257;55.082;38.772;2024-03-29T00:29:28;99285.22;;;5.78;56.97
71948;BME280;63257;55.082;38.772;2024-03-29T00:31:54;99276.25;;;5.84;58.00
71948;BME280;63257;55.082;38.772;2024-03-29T00:34:20;99284.53;;;5.94;56.28
71948;BME280;63257;55.082;38.772;2024-03-29T00:36:45;99282.91;;;5.91;56.73
71948;BME280;63257;55.082;38.772;2024-03-29T00:39:11;99269.59;;;5.96;57.07
71948;BME280;63257;55.082;38.772;2024-03-29T00:41:37;99273.47;;;5.87;56.25
71948;BME280;63257;55.082;38.772;2024-03-29T00:44:03;99256.47;;;5.98;56.56
71948;BME280;63257;55.082;38.772;2024-03-29T00:46:29;99260.78;;;6.18;57.88
71948;BME280;63257;55.082;38.772;2024-03-29T00:48:55;99257.75;;;6.27;56.86
71948;BME280;63257;55.082;38.772;2024-03-29T00:51:20;99253.78;;;6.18;56.01
71948;BME280;63257;55.082;38.772;2024-03-29T00:53:46;99235.00;;;5.89;55.81
71948;BME280;63257;55.082;38.772;2024-03-29T00:56:12;99239.34;;;5.89;56.34
71948;BME280;63257;55.082;38.772;2024-03-29T00:58:38;99250.34;;;5.97;57.00
71948;BME280;63257;55.082;38.772;2024-03-29T01:01:03;99243.38;;;5.98;56.14
71948;BME280;63257;55.082;38.772;2024-03-29T01:03:29;99214.63;;;5.75;56.62
71948;BME280;63257;55.082;38.772;2024-03-29T01:05:57;99229.88;;;5.86;56.21
71948;BME280;63257;55.082;38.772;2024-03-29T01:08:22;99232.84;;;5.78;56.82
71948;BME280;63257;55.082;38.772;2024-03-29T01:10:49;99226.47;;;5.84;56.97
71948;BME280;63257;55.082;38.772;2024-03-29T01:13:15;99214.94;;;5.88;57.22
71948;BME280;63257;55.082;38.772;2024-03-29T01:15:41;99214.19;;;6.05;56.58
71948;BME280;63257;55.082;38.772;2024-03-29T01:18:06;99191.09;;;6.33;56.32
71948;BME280;63257;55.082;38.772;2024-03-29T01:20:32;99205.22;;;6.48;55.82
71948;BME280;63257;55.082;38.772;2024-03-29T01:22:58;99204.00;;;6.18;55.26
71948;BME280;63257;55.082;38.772;2024-03-29T01:25:24;99208.88;;;6.07;55.54
71948;BME280;63257;55.082;38.772;2024-03-29T01:27:49;99181.66;;;5.90;56.56
71948;BME280;63257;55.082;38.772;2024-03-29T01:30:15;99195.56;;;5.92;56.92
71948;BME280;63257;55.082;38.772;2024-03-29T01:32:41;99174.66;;;5.72;56.50
71948;BME280;63257;55.082;38.772;2024-03-29T01:35:07;99194.41;;;5.79;56.57
71948;BME280;63257;55.082;38.772;2024-03-29T01:37:33;99162.72;;;5.66;56.80
71948;BME280;63257;55.082;38.772;2024-03-29T01:40:00;99196.13;;;5.80;57.67
71948;BME280;63257;55.082;38.772;2024-03-29T01:42:25;99179.94;;;6.10;55.85
71948;BME280;63257;55.082;38.772;2024-03-29T01:44:51;99151.72;;;5.96;56.06
71948;BME280;63257;55.082;38.772;2024-03-29T01:47:17;99166.47;;;5.99;57.38
71948;BME280;63257;55.082;38.772;2024-03-29T01:49:44;99168.38;;;5.95;57.03
71948;BME280;63257;55.082;38.772;2024-03-29T01:52:13;99167.88;;;5.87;57.16
71948;BME280;63257;55.082;38.772;2024-03-29T01:54:41;99150.69;;;5.81;56.56
71948;BME280;63257;55.082;38.772;2024-03-29T01:57:08;99157.19;;;5.91;56.61
71948;BME280;63257;55.082;38.772;2024-03-29T01:59:34;99146.47;;;5.98;56.28
71948;BME280;63257;55.082;38.772;2024-03-29T02:02:00;99113.88;;;5.65;56.68
71948;BME280;63257;55.082;38.772;2024-03-29T02:04:27;99147.72;;;6.08;55.85
71948;BME280;63257;55.082;38.772;2024-03-29T02:06:53;99139.25;;;6.20;56.31
71948;BME280;63257;55.082;38.772;2024-03-29T02:09:19;99127.94;;;6.37;55.50
71948;BME280;63257;55.082;38.772;2024-03-29T02:11:45;99134.53;;;6.81;54.45
71948;BME280;63257;55.082;38.772;2024-03-29T02:14:11;99134.13;;;6.54;54.92
71948;BME280;63257;55.082;38.772;2024-03-29T02:16:37;99127.34;;;6.32;54.98
71948;BME280;63257;55.082;38.772;2024-03-29T02:19:03;99122.25;;;6.47;56.13
71948;BME280;63257;55.082;38.772;2024-03-29T02:21:31;99126.63;;;6.28;55.37
71948;BME280;63257;55.082;38.772;2024-03-29T02:24:08;99127.06;;;6.02;55.86
71948;BME280;63257;55.082;38.772;2024-03-29T02:26:35;99101.75;;;5.82;56.66
71948;BME280;63257;55.082;38.772;2024-03-29T02:29:08;99102.91;;;5.76;56.10
71948;BME280;63257;55.082;38.772;2024-03-29T02:31:35;99112.38;;;5.78;56.72
71948;BME280;63257;55.082;38.772;2024-03-29T02:34:01;99102.00;;;5.77;57.11
71948;BME280;63257;55.082;38.772;2024-03-29T02:36:27;99119.38;;;5.78;56.63
71948;BME280;63257;55.082;38.772;2024-03-29T02:38:52;99115.28;;;5.91;56.30
71948;BME280;63257;55.082;38.772;2024-03-29T02:41:18;99110.34;;;5.85;56.78
71948;BME280;63257;55.082;38.772;2024-03-29T02:43:44;99098.72;;;5.72;56.79
71948;BME280;63257;55.082;38.772;2024-03-29T02:46:10;99096.38;;;5.85;56.35
71948;BME280;63257;55.082;38.772;2024-03-29T02:48:35;99088.44;;;5.86;56.16
71948;BME280;63257;55.082;38.772;2024-03-29T02:51:01;99093.34;;;5.75;56.82
71948;BME280;63257;55.082;38.772;2024-03-29T02:53:27;99102.53;;;5.84;56.16
71948;BME280;63257;55.082;38.772;2024-03-29T02:55:53;99109.19;;;5.91;56.67
71948;BME280;63257;55.082;38.772;2024-03-29T02:58:19;99111.31;;;5.83;56.65
71948;BME280;63257;55.082;38.772;2024-03-29T03:00:44;99095.97;;;5.75;57.59
71948;BME280;63257;55.082;38.772;2024-03-29T03:03:10;99103.97;;;5.72;56.84
71948;BME280;63257;55.082;38.772;2024-03-29T03:05:36;99104.88;;;5.71;56.75
71948;BME280;63257;55.082;38.772;2024-03-29T03:08:02;99096.25;;;5.69;57.58
71948;BME280;63257;55.082;38.772;2024-03-29T03:10:47;99095.53;;;5.65;57.00
71948;BME280;63257;55.082;38.772;2024-03-29T03:13:22;99098.25;;;5.64;56.82
71948;BME280;63257;55.082;38.772;2024-03-29T03:15:48;99102.69;;;5.61;57.68
71948;BME280;63257;55.082;38.772;2024-03-29T03:18:14;99079.69;;;5.68;57.46
71948;BME280;63257;55.082;38.772;2024-03-29T03:20:39;99087.13;;;5.77;57.87
71948;BME280;63257;55.082;38.772;2024-03-29T03:23:05;99067.72;;;5.63;56.88
71948;BME280;63257;55.082;38.772;2024-03-29T03:25:32;99079.97;;;5.81;57.80
71948;BME280;63257;55.082;38.772;2024-03-29T03:27:58;99069.63;;;5.78;56.69
71948;BME280;63257;55.082;38.772;2024-03-29T03:30:24;99059.59;;;5.69;57.00
71948;BME280;63257;55.082;38.772;2024-03-29T03:32:49;99071.91;;;5.67;57.23
71948;BME280;63257;55.082;38.772;2024-03-29T03:35:15;99069.38;;;5.65;56.74
71948;BME280;63257;55.082;38.772;2024-03-29T03:37:41;99067.47;;;5.69;57.31
71948;BME280;63257;55.082;38.772;2024-03-29T03:40:07;99062.91;;;5.72;58.02
71948;BME280;63257;55.082;38.772;2024-03-29T03:42:33;99063.78;;;5.73;57.46
71948;BME280;63257;55.082;38.772;2024-03-29T03:44:59;99065.38;;;5.75;57.05
71948;BME280;63257;55.082;38.772;2024-03-29T03:47:25;99053.84;;;5.80;57.78
71948;BME280;63257;55.082;38.772;2024-03-29T03:49:51;99061.34;;;5.68;57.36
71948;BME280;63257;55.082;38.772;2024-03-29T03:52:17;99058.31;;;5.58;57.71
71948;BME280;63257;55.082;38.772;2024-03-29T03:54:42;99044.41;;;5.39;57.99
71948;BME280;63257;55.082;38.772;2024-03-29T03:57:08;99063.66;;;5.38;58.10
71948;BME280;63257;55.082;38.772;2024-03-29T03:59:34;99064.69;;;5.34;58.22
71948;BME280;63257;55.082;38.772;2024-03-29T04:02:00;99055.03;;;5.36;58.40
71948;BME280;63257;55.082;38.772;2024-03-29T04:04:26;99050.56;;;5.38;58.31
71948;BME280;63257;55.082;38.772;2024-03-29T04:06:52;99053.25;;;5.36;58.32
71948;BME280;63257;55.082;38.772;2024-03-29T04:09:17;99026.94;;;5.20;58.76
71948;BME280;63257;55.082;38.772;2024-03-29T04:11:43;99044.41;;;5.39;58.57
71948;BME280;63257;55.082;38.772;2024-03-29T04:14:10;99042.78;;;5.36;58.44
71948;BME280;63257;55.082;38.772;2024-03-29T04:16:36;99034.09;;;5.36;58.72
71948;BME280;63257;55.082;38.772;2024-03-29T04:19:02;99039.31;;;5.36;58.19
71948;BME280;63257;55.082;38.772;2024-03-29T04:21:28;99027.78;;;5.40;58.46
71948;BME280;63257;55.082;38.772;2024-03-29T04:23:53;99025.03;;;5.43;58.04
71948;BME280;63257;55.082;38.772;2024-03-29T04:26:19;99025.03;;;5.43;58.80
71948;BME280;63257;55.082;38.772;2024-03-29T04:28:45;99003.19;;;5.44;58.10
71948;BME280;63257;55.082;38.772;2024-03-29T04:31:11;98982.28;;;5.42;57.70
71948;BME280;63257;55.082;38.772;2024-03-29T04:33:36;99023.63;;;5.72;57.84
71948;BME280;63257;55.082;38.772;2024-03-29T04:36:03;99007.56;;;5.80;56.88
71948;BME280;63257;55.082;38.772;2024-03-29T04:38:31;98986.09;;;5.91;56.85
71948;BME280;63257;55.082;38.772;2024-03-29T04:40:58;98983.16;;;5.97;56.24
71948;BME280;63257;55.082;38.772;2024-03-29T04:43:26;98991.22;;;6.11;56.20
71948;BME280;63257;55.082;38.772;2024-03-29T04:46:10;98982.56;;;6.09;55.70
71948;BME280;63257;55.082;38.772;2024-03-29T04:48:37;98987.97;;;6.24;55.42
71948;BME280;63257;55.082;38.772;2024-03-29T04:51:03;98987.44;;;6.35;55.59
71948;BME280;63257;55.082;38.772;2024-03-29T04:53:29;98982.66;;;6.43;54.88
71948;BME280;63257;55.082;38.772;2024-03-29T04:55:58;98978.00;;;6.48;54.51
71948;BME280;63257;55.082;38.772;2024-03-29T04:58:25;98973.44;;;6.52;54.73
71948;BME280;63257;55.082;38.772;2024-03-29T05:00:52;98954.47;;;6.47;54.81
71948;BME280;63257;55.082;38.772;2024-03-29T05:03:19;98976.91;;;6.52;54.29
71948;BME280;63257;55.082;38.772;2024-03-29T05:05:45;98973.00;;;6.43;54.88
71948;BME280;63257;55.082;38.772;2024-03-29T05:08:12;98978.16;;;6.45;54.20
71948;BME280;63257;55.082;38.772;2024-03-29T05:10:39;98964.75;;;6.51;54.49
71948;BME280;63257;55.082;38.772;2024-03-29T05:13:05;98970.91;;;6.50;54.50
71948;BME280;63257;55.082;38.772;2024-03-29T05:15:32;98976.69;;;6.57;54.23
71948;BME280;63257;55.082;38.772;2024-03-29T05:17:58;98965.03;;;6.62;53.30
71948;BME280;63257;55.082;38.772;2024-03-29T05:20:23;98977.97;;;6.66;53.41
71948;BME280;63257;55.082;38.772;2024-03-29T05:22:49;98970.94;;;6.66;53.92
71948;BME280;63257;55.082;38.772;2024-03-29T05:25:15;98981.50;;;6.65;53.38
71948;BME280;63257;55.082;38.772;2024-03-29T05:27:41;98956.09;;;6.49;53.14
71948;BME280;63257;55.082;38.772;2024-03-29T05:30:07;98971.97;;;6.64;53.24
71948;BME280;63257;55.082;38.772;2024-03-29T05:32:35;98969.94;;;6.69;53.37
71948;BME280;63257;55.082;38.772;2024-03-29T05:35:01;98941.59;;;6.59;53.90
71948;BME280;63257;55.082;38.772;2024-03-29T05:37:29;98945.41;;;6.70;53.26
71948;BME280;63257;55.082;38.772;2024-03-29T05:39:55;98961.25;;;6.84;53.20
71948;BME280;63257;55.082;38.772;2024-03-29T05:42:26;98962.38;;;6.96;52.72
71948;BME280;63257;55.082;38.772;2024-03-29T05:44:51;98941.16;;;7.01;52.72
71948;BME280;63257;55.082;38.772;2024-03-29T05:47:17;98959.25;;;7.21;52.31
71948;BME280;63257;55.082;38.772;2024-03-29T05:49:43;98965.94;;;7.27;52.60
71948;BME280;63257;55.082;38.772;2024-03-29T05:52:09;98957.91;;;7.30;52.39
71948;BME280;63257;55.082;38.772;2024-03-29T05:54:35;98962.13;;;7.33;52.30
71948;BME280;63257;55.082;38.772;2024-03-29T05:57:01;98956.38;;;7.26;52.16
71948;BME280;63257;55.082;38.772;2024-03-29T05:59:28;98941.91;;;7.19;52.59
71948;BME280;63257;55.082;38.772;2024-03-29T06:01:54;98952.13;;;7.39;52.00
71948;BME280;63257;55.082;38.772;2024-03-29T06:04:19;98947.41;;;7.46;51.46
71948;BME280;63257;55.082;38.772;2024-03-29T06:06:51;98947.88;;;7.53;51.51
71948;BME280;63257;55.082;38.772;2024-03-29T06:09:17;98938.22;;;7.53;51.66
71948;BME280;63257;55.082;38.772;2024-03-29T06:11:43;98928.94;;;7.47;51.74
71948;BME280;63257;55.082;38.772;2024-03-29T06:14:09;98955.22;;;7.62;51.70
71948;BME280;63257;55.082;38.772;2024-03-29T06:16:35;98953.09;;;7.69;51.32
71948;BME280;63257;55.082;38.772;2024-03-29T06:19:19;98961.91;;;7.68;51.82
71948;BME280;63257;55.082;38.772;2024-03-29T06:21:45;98954.72;;;7.55;51.63
71948;BME280;63257;55.082;38.772;2024-03-29T06:24:11;98925.72;;;7.26;52.43
71948;BME280;63257;55.082;38.772;2024-03-29T06:26:41;98940.34;;;7.30;53.21
71948;BME280;63257;55.082;38.772;2024-03-29T06:29:08;98938.75;;;7.28;52.62
71948;BME280;63257;55.082;38.772;2024-03-29T06:31:37;98927.00;;;7.19;52.50
71948;BME280;63257;55.082;38.772;2024-03-29T06:34:02;98922.66;;;7.18;53.20
71948;BME280;63257;55.082;38.772;2024-03-29T06:36:28;98942.75;;;7.35;52.93
71948;BME280;63257;55.082;38.772;2024-03-29T06:38:56;98933.84;;;7.38;53.04
71948;BME280;63257;55.082;38.772;2024-03-29T06:41:22;98920.97;;;7.49;53.29
71948;BME280;63257;55.082;38.772;2024-03-29T06:43:48;98917.16;;;7.69;52.43
71948;BME280;63257;55.082;38.772;2024-03-29T06:46:14;98924.81;;;7.88;52.17
71948;BME280;63257;55.082;38.772;2024-03-29T06:48:41;98934.72;;;7.99;51.48
71948;BME280;63257;55.082;38.772;2024-03-29T06:51:06;98911.47;;;8.07;51.61
71948;BME280;63257;55.082;38.772;2024-03-29T06:53:32;98936.38;;;8.30;50.83
71948;BME280;63257;55.082;38.772;2024-03-29T06:56:00;98927.47;;;8.33;50.09
71948;BME280;63257;55.082;38.772;2024-03-29T06:58:27;98928.16;;;8.51;50.62
71948;BME280;63257;55.082;38.772;2024-03-29T07:00:53;98910.66;;;8.50;49.76
71948;BME280;63257;55.082;38.772;2024-03-29T07:03:19;98920.34;;;8.64;50.36
71948;BME280;63257;55.082;38.772;2024-03-29T07:05:46;98917.44;;;8.69;49.78
71948;BME280;63257;55.082;38.772;2024-03-29T07:08:12;98899.78;;;8.71;49.50
71948;BME280;63257;55.082;38.772;2024-03-29T07:10:38;98919.59;;;8.76;49.83
71948;BME280;63257;55.082;38.772;2024-03-29T07:13:04;98913.03;;;8.83;49.31
71948;BME280;63257;55.082;38.772;2024-03-29T07:15:29;98901.84;;;8.80;49.41
71948;BME280;63257;55.082;38.772;2024-03-29T07:17:55;98901.38;;;8.73;49.98
71948;BME280;63257;55.082;38.772;2024-03-29T07:20:25;98915.84;;;8.66;50.37
71948;BME280;63257;55.082;38.772;2024-03-29T07:22:50;98902.59;;;8.68;49.82
71948;BME280;63257;55.082;38.772;2024-03-29T07:25:16;98912.75;;;8.59;49.94
71948;BME280;63257;55.082;38.772;2024-03-29T07:27:42;98899.91;;;8.55;50.49
71948;BME280;63257;55.082;38.772;2024-03-29T07:30:09;98885.41;;;8.47;49.93
71948;BME280;63257;55.082;38.772;2024-03-29T07:32:36;98903.06;;;8.45;50.60
71948;BME280;63257;55.082;38.772;2024-03-29T07:35:03;98907.94;;;8.37;50.93
71948;BME280;63257;55.082;38.772;2024-03-29T07:37:29;98882.56;;;8.22;50.91
71948;BME280;63257;55.082;38.772;2024-03-29T07:39:55;98902.19;;;8.30;51.17
71948;BME280;63257;55.082;38.772;2024-03-29T07:42:21;98922.38;;;8.30;51.46
71948;BME280;63257;55.082;38.772;2024-03-29T07:44:47;98894.75;;;8.23;51.64
71948;BME280;63257;55.082;38.772;2024-03-29T07:47:13;98905.00;;;8.27;51.50
71948;BME280;63257;55.082;38.772;2024-03-29T07:49:40;98917.69;;;8.21;51.95
71948;BME280;63257;55.082;38.772;2024-03-29T07:52:06;98914.94;;;8.08;51.88
71948;BME280;63257;55.082;38.772;2024-03-29T07:54:34;98887.94;;;7.75;52.02
71948;BME280;63257;55.082;38.772;2024-03-29T07:57:00;98897.91;;;7.85;53.08
71948;BME280;63257;55.082;38.772;2024-03-29T07:59:27;98904.44;;;7.77;52.36
71948;BME280;63257;55.082;38.772;2024-03-29T08:01:53;98883.31;;;7.64;52.68
71948;BME280;63257;55.082;38.772;2024-03-29T08:04:21;98905.22;;;7.79;52.91
71948;BME280;63257;55.082;38.772;2024-03-29T08:06:47;98905.31;;;7.78;53.44
71948;BME280;63257;55.082;38.772;2024-03-29T08:09:13;98896.75;;;7.74;54.49
71948;BME280;63257;55.082;38.772;2024-03-29T08:11:42;98880.97;;;7.60;55.33
71948;BME280;63257;55.082;38.772;2024-03-29T08:14:08;98881.38;;;7.52;56.24
71948;BME280;63257;55.082;38.772;2024-03-29T08:16:34;98880.94;;;7.29;57.17
71948;BME280;63257;55.082;38.772;2024-03-29T08:19:00;98884.06;;;7.20;58.93
71948;BME280;63257;55.082;38.772;2024-03-29T08:21:26;98854.03;;;7.10;59.74
71948;BME280;63257;55.082;38.772;2024-03-29T08:23:53;98882.75;;;7.13;60.50
71948;BME280;63257;55.082;38.772;2024-03-29T08:26:24;98899.31;;;7.13;61.77
71948;BME280;63257;55.082;38.772;2024-03-29T08:28:50;98902.03;;;7.12;62.44
71948;BME280;63257;55.082;38.772;2024-03-29T08:31:16;98867.69;;;7.01;61.99
71948;BME280;63257;55.082;38.772;2024-03-29T08:33:42;98885.00;;;7.03;62.68
71948;BME280;63257;55.082;38.772;2024-03-29T08:36:09;98881.53;;;7.03;63.21
71948;BME280;63257;55.082;38.772;2024-03-29T08:38:37;98855.06;;;6.75;63.47
71948;BME280;63257;55.082;38.772;2024-03-29T08:41:06;98861.00;;;6.79;64.44
71948;BME280;63257;55.082;38.772;2024-03-29T08:43:33;98853.63;;;6.70;65.07
71948;BME280;63257;55.082;38.772;2024-03-29T08:45:59;98873.25;;;6.78;64.69
71948;BME280;63257;55.082;38.772;2024-03-29T08:48:26;98843.06;;;6.55;65.50
71948;BME280;63257;55.082;38.772;2024-03-29T08:50:52;98855.91;;;6.60;66.28
71948;BME280;63257;55.082;38.772;2024-03-29T08:53:19;98889.22;;;6.58;66.21
71948;BME280;63257;55.082;38.772;2024-03-29T08:55:47;98873.56;;;6.56;66.45
71948;BME280;63257;55.082;38.772;2024-03-29T08:58:14;98876.19;;;6.56;66.62
71948;BME280;63257;55.082;38.772;2024-03-29T09:00:40;98859.28;;;6.46;66.14
71948;BME280;63257;55.082;38.772;2024-03-29T09:03:06;98848.97;;;6.43;66.58
71948;BME280;63257;55.082;38.772;2024-03-29T09:05:32;98865.19;;;6.50;66.63
71948;BME280;63257;55.082;38.772;2024-03-29T09:07:58;98860.88;;;6.49;66.71
71948;BME280;63257;55.082;38.772;2024-03-29T09:10:24;98860.72;;;6.52;65.79
71948;BME280;63257;55.082;38.772;2024-03-29T09:12:52;98853.38;;;6.58;66.34
71948;BME280;63257;55.082;38.772;2024-03-29T09:15:19;98881.19;;;6.77;66.20
71948;BME280;63257;55.082;38.772;2024-03-29T09:17:45;98853.72;;;6.68;64.75
71948;BME280;63257;55.082;38.772;2024-03-29T09:20:12;98876.81;;;6.77;65.04
71948;BME280;63257;55.082;38.772;2024-03-29T09:22:41;98859.66;;;6.72;64.54
71948;BME280;63257;55.082;38.772;2024-03-29T09:25:08;98842.81;;;6.76;64.34
71948;BME280;63257;55.082;38.772;2024-03-29T09:27:39;98860.31;;;6.91;64.29
71948;BME280;63257;55.082;38.772;2024-03-29T09:30:10;98844.91;;;7.01;63.79
71948;BME280;63257;55.082;38.772;2024-03-29T09:32:36;98848.34;;;7.02;63.63
71948;BME280;63257;55.082;38.772;2024-03-29T09:35:02;98831.59;;;7.04;63.80
71948;BME280;63257;55.082;38.772;2024-03-29T09:37:31;98855.63;;;7.12;63.01
71948;BME280;63257;55.082;38.772;2024-03-29T09:40:03;98840.47;;;7.18;63.02
71948;BME280;63257;55.082;38.772;2024-03-29T09:42:32;98812.03;;;7.10;63.28
71948;BME280;63257;55.082;38.772;2024-03-29T09:44:59;98831.00;;;7.45;62.29
71948;BME280;63257;55.082;38.772;2024-03-29T09:47:30;98810.53;;;7.36;62.50
71948;BME280;63257;55.082;38.772;2024-03-29T09:49:59;98830.00;;;7.48;61.56
71948;BME280;63257;55.082;38.772;2024-03-29T09:52:31;98815.94;;;7.49;61.05
71948;BME280;63257;55.082;38.772;2024-03-29T09:54:58;98827.97;;;7.68;61.03
71948;BME280;63257;55.082;38.772;2024-03-29T09:57:26;98830.97;;;7.76;60.30
71948;BME280;63257;55.082;38.772;2024-03-29T09:59:58;98838.69;;;7.79;60.01
71948;BME280;63257;55.082;38.772;2024-03-29T10:02:31;98838.13;;;7.74;60.62
71948;BME280;63257;55.082;38.772;2024-03-29T10:04:59;98818.94;;;7.57;60.27
71948;BME280;63257;55.082;38.772;2024-03-29T10:07:30;98835.72;;;7.55;60.39
71948;BME280;63257;55.082;38.772;2024-03-29T10:09:58;98827.28;;;7.50;60.58
71948;BME280;63257;55.082;38.772;2024-03-29T10:12:27;98830.66;;;7.52;61.68
71948;BME280;63257;55.082;38.772;2024-03-29T10:14:53;98816.47;;;7.40;61.60
71948;BME280;63257;55.082;38.772;2024-03-29T10:17:21;98805.22;;;7.38;61.44
71948;BME280;63257;55.082;38.772;2024-03-29T10:19:46;98816.75;;;7.50;61.57
71948;BME280;63257;55.082;38.772;2024-03-29T10:22:15;98826.72;;;7.59;61.22
71948;BME280;63257;55.082;38.772;2024-03-29T10:24:42;98812.97;;;7.70;61.40
71948;BME280;63257;55.082;38.772;2024-03-29T10:27:08;98795.41;;;7.70;60.91
71948;BME280;63257;55.082;38.772;2024-03-29T10:29:34;98810.84;;;7.91;60.29
71948;BME280;63257;55.082;38.772;2024-03-29T10:32:00;98804.72;;;8.05;59.23
71948;BME280;63257;55.082;38.772;2024-03-29T10:34:27;98786.53;;;8.02;59.14
71948;BME280;63257;55.082;38.772;2024-03-29T10:37:01;98801.75;;;8.11;59.39
71948;BME280;63257;55.082;38.772;2024-03-29T10:39:29;98795.44;;;8.28;58.49
71948;BME280;63257;55.082;38.772;2024-03-29T10:41:56;98791.47;;;8.35;58.14
71948;BME280;63257;55.082;38.772;2024-03-29T10:44:23;98792.53;;;8.47;58.34
71948;BME280;63257;55.082;38.772;2024-03-29T10:46:50;98784.28;;;8.53;58.25
71948;BME280;63257;55.082;38.772;2024-03-29T10:49:17;98795.06;;;8.90;56.88
71948;BME280;63257;55.082;38.772;2024-03-29T10:51:43;98806.91;;;9.10;56.09
71948;BME280;63257;55.082;38.772;2024-03-29T10:54:11;98794.88;;;9.46;55.46
71948;BME280;63257;55.082;38.772;2024-03-29T10:56:38;98785.63;;;9.66;54.79
71948;BME280;63257;55.082;38.772;2024-03-29T10:59:21;98803.78;;;9.97;54.20
71948;BME280;63257;55.082;38.772;2024-03-29T11:02:00;98792.94;;;9.76;54.17
71948;BME280;63257;55.082;38.772;2024-03-29T11:04:33;98807.22;;;9.59;54.73
71948;BME280;63257;55.082;38.772;2024-03-29T11:07:06;98760.19;;;9.27;55.56
71948;BME280;63257;55.082;38.772;2024-03-29T11:09:34;98797.13;;;9.53;55.71
71948;BME280;63257;55.082;38.772;2024-03-29T11:12:02;98794.25;;;9.56;55.29
71948;BME280;63257;55.082;38.772;2024-03-29T11:14:40;98772.16;;;9.45;55.46
71948;BME280;63257;55.082;38.772;2024-03-29T11:17:07;98763.91;;;9.50;54.91
71948;BME280;63257;55.082;38.772;2024-03-29T11:19:35;98780.25;;;9.55;55.19
71948;BME280;63257;55.082;38.772;2024-03-29T11:22:02;98780.88;;;9.46;55.86
71948;BME280;63257;55.082;38.772;2024-03-29T11:24:28;98779.50;;;9.27;56.17
71948;BME280;63257;55.082;38.772;2024-03-29T11:26:55;98768.28;;;9.11;56.68
71948;BME280;63257;55.082;38.772;2024-03-29T11:29:21;98764.41;;;9.16;56.64
71948;BME280;63257;55.082;38.772;2024-03-29T11:31:48;98770.44;;;9.31;56.49
71948;BME280;63257;55.082;38.772;2024-03-29T11:34:19;98764.13;;;9.47;56.48
71948;BME280;63257;55.082;38.772;2024-03-29T11:36:45;98758.03;;;9.59;55.42
71948;BME280;63257;55.082;38.772;2024-03-29T11:39:21;98750.84;;;9.61;55.29
71948;BME280;63257;55.082;38.772;2024-03-29T11:41:49;98746.94;;;9.67;55.21
71948;BME280;63257;55.082;38.772;2024-03-29T11:44:15;98753.63;;;9.73;54.54
71948;BME280;63257;55.082;38.772;2024-03-29T11:46:43;98759.09;;;9.57;55.46
71948;BME280;63257;55.082;38.772;2024-03-29T11:49:09;98740.75;;;9.68;54.75
71948;BME280;63257;55.082;38.772;2024-03-29T11:51:36;98748.59;;;10.19;53.68
71948;BME280;63257;55.082;38.772;2024-03-29T11:54:02;98763.38;;;10.35;53.52
71948;BME280;63257;55.082;38.772;2024-03-29T11:56:28;98729.88;;;10.73;52.44
71948;BME280;63257;55.082;38.772;2024-03-29T11:58:54;98724.50;;;11.10;50.56
71948;BME280;63257;55.082;38.772;2024-03-29T12:01:26;98739.25;;;11.48;49.81
71948;BME280;63257;55.082;38.772;2024-03-29T12:03:51;98743.25;;;11.53;49.64
71948;BME280;63257;55.082;38.772;2024-03-29T12:06:18;98747.22;;;11.59;49.35
71948;BME280;63257;55.082;38.772;2024-03-29T12:08:44;98743.78;;;11.34;50.08
71948;BME280;63257;55.082;38.772;2024-03-29T12:11:10;98742.03;;;11.11;50.29
71948;BME280;63257;55.082;38.772;2024-03-29T12:13:36;98738.41;;;11.00;51.18
71948;BME280;63257;55.082;38.772;2024-03-29T12:16:02;98755.44;;;10.96;51.50
71948;BME280;63257;55.082;38.772;2024-03-29T12:18:29;98730.94;;;10.94;51.04
71948;BME280;63257;55.082;38.772;2024-03-29T12:20:57;98743.97;;;11.09;51.48
71948;BME280;63257;55.082;38.772;2024-03-29T12:23:23;98741.97;;;11.24;50.66
71948;BME280;63257;55.082;38.772;2024-03-29T12:25:50;98732.13;;;11.26;50.48
71948;BME280;63257;55.082;38.772;2024-03-29T12:28:17;98750.50;;;11.27;50.51
71948;BME280;63257;55.082;38.772;2024-03-29T12:30:45;98736.34;;;11.28;50.90
71948;BME280;63257;55.082;38.772;2024-03-29T12:33:13;98742.13;;;11.33;50.93
71948;BME280;63257;55.082;38.772;2024-03-29T12:35:43;98744.81;;;11.56;50.24
71948;BME280;63257;55.082;38.772;2024-03-29T12:38:11;98747.19;;;11.48;50.23
71948;BME280;63257;55.082;38.772;2024-03-29T12:40:38;98743.41;;;11.28;50.33
71948;BME280;63257;55.082;38.772;2024-03-29T12:43:06;98738.91;;;11.06;51.45
71948;BME280;63257;55.082;38.772;2024-03-29T12:45:34;98736.38;;;11.04;51.62
71948;BME280;63257;55.082;38.772;2024-03-29T12:48:02;98748.59;;;10.94;52.06
71948;BME280;63257;55.082;38.772;2024-03-29T12:50:29;98742.28;;;11.08;51.96
71948;BME280;63257;55.082;38.772;2024-03-29T12:53:05;98734.75;;;11.14;51.80
71948;BME280;63257;55.082;38.772;2024-03-29T12:55:32;98743.53;;;11.26;52.08
71948;BME280;63257;55.082;38.772;2024-03-29T12:58:02;98740.19;;;11.24;52.25